Portada
METAR-TAF:

METAR-TAF

Aeroports :

Yap, Micronèsia

latitud: 09-29N, longitud: 138-05E, altitud: 28 m

Observació

L'informe es va fer fa 17 minuts, a les 21:50 UTC
Vent 6 kt amb direcció variable
Temperatura 28°C
Humitat 89%
Pressió 1011 hPa
Visibilitat: 19.3 km
Núvols disperses a una alçada de 1600 ft, Cumulus congestus.
Cel ennuvolat a una alçada de 30000 ft

METAR: PTYA 112150Z VRB06KT 12SM SCT016TCU BKN300 28/26 A2984 RMK SHRAB02E46 TCU S-W SLP105 T02750264

Hora: 08:07 (22:07 UTC)

Pronòstic

L'informe es va fer fa 4 hores i 39 minuts, a les 17:28 UTC
Pronòstic vàlid del 11 a les 18 UTC al 12 a les 18 UTC
Vent 10 kt del Est
Visibilitat: 10 km
Núvols disperses a una alçada de 1600 ft
Núvols disperses a una alçada de 5000 ft
xàfecs en les proximitats

TAF: PTYA 111728Z 1118/1218 10010KT P6SM VCSH SCT016 SCT050

Observacions i pronòstics meteorològics de més de 4000 aeroports (METAR i TAF).

Les estacions disponibles són els punts grocs i vermells al mapa.

Posi el ratolí al punt desitjat per veure el nom de l'estació.

Feu clic per veure les observacions i els pronòstics meteorològics.

Per canviar el mapa: feu clic els botons verds amb una creu de color negre per apropar; al botó verd amb un guió per allunyar la imatge; o en les fletxes verdes per a mapes adjacents.


METAR-TAF: